Time;durP1;ratioP1;P1;durP2;ratioP2;P2;SDS_P1;SDS_P2;PMS_P1;PMS_P2;Temp;Humidity;BMP_temperature;BMP_pressure;BME280_temperature;BME280_humidity;BME280_pressure;Samples;Min_cycle;Max_cycle;Signal;HPM_P1;HPM_P2
2021/10/01 12:09:12;;;;;;;3.90;0.80;;;19.00;55.40;20.40;94177.00;;;;10510525;28;45382;-64
2021/10/01 12:14:15;;;;;;;2.58;1.00;;;19.20;55.00;22.40;94180.00;;;;10484329;28;47933;-64
2021/10/01 12:19:24;;;;;;;4.45;0.95;;;19.90;53.10;23.60;94173.00;;;;10467370;28;45299;-65
2021/10/01 12:24:25;;;;;;;3.03;0.90;;;20.50;51.70;24.30;94152.00;;;;10467411;28;45286;-65
2021/10/01 12:29:27;;;;;;;2.75;0.95;;;20.90;50.60;24.80;94147.00;;;;10466049;28;75366;-66
2021/10/01 12:34:33;;;;;;;2.88;1.00;;;21.20;49.80;25.20;94144.00;;;;10467406;28;45362;-66
2021/10/01 12:39:37;;;;;;;3.10;0.90;;;21.40;49.40;25.50;94140.00;;;;10466211;28;47418;-66
2021/10/01 12:44:44;;;;;;;4.43;0.95;;;21.50;49.00;25.60;94144.00;;;;10466826;28;45692;-66
2021/10/01 12:50:08;;;;;;;3.67;1.00;;;21.60;48.60;25.90;94148.00;;;;10466407;28;45424;-66
2021/10/01 12:55:11;;;;;;;2.38;0.93;;;21.70;48.40;25.90;94151.00;;;;10455961;22;47833;-60
2021/10/01 13:00:21;;;;;;;4.00;0.82;;;21.80;48.40;26.00;94138.00;;;;10404622;28;45316;-62
2021/10/01 13:05:31;;;;;;;5.25;1.30;;;21.80;48.20;26.10;94128.00;;;;10393782;28;45323;-61
2021/10/01 13:10:42;;;;;;;2.75;0.70;;;21.90;48.40;26.20;94116.00;;;;10361681;28;45629;-62
2021/10/01 13:15:53;;;;;;;3.67;1.05;;;21.90;48.60;26.20;94122.00;;;;10362454;28;45568;-60
2021/10/01 13:21:02;;;;;;;2.45;0.90;;;21.90;48.80;26.20;94116.00;;;;10334711;28;45564;-60
2021/10/01 13:26:11;;;;;;;2.67;0.90;;;22.00;48.70;26.30;94103.00;;;;10347710;28;45410;-60
2021/10/01 13:31:12;;;;;;;2.20;0.80;;;22.00;48.70;26.30;94115.00;;;;10355556;28;45252;-61
2021/10/01 13:36:14;;;;;;;2.45;0.80;;;22.10;48.80;26.40;94107.00;;;;10354102;28;45564;-61
2021/10/01 13:41:17;;;;;;;3.10;0.70;;;22.10;48.80;26.40;94106.00;;;;10353865;28;46377;-61
2021/10/01 13:46:22;;;;;;;1.25;0.70;;;22.20;48.70;26.50;94108.00;;;;10353386;28;47524;-61
2021/10/01 13:51:22;;;;;;;3.20;0.60;;;22.20;48.60;26.60;94102.00;;;;10353765;28;45275;-60
2021/10/01 13:56:24;;;;;;;1.98;0.70;;;22.30;48.60;26.60;94106.00;;;;10352910;28;75608;-62
2021/10/01 14:01:24;;;;;;;1.83;0.68;;;22.30;48.50;26.60;94103.00;;;;10353884;28;46096;-60
2021/10/01 14:06:25;;;;;;;2.17;0.70;;;22.30;48.40;26.70;94081.00;;;;10352065;28;73388;-61
2021/10/01 14:11:26;;;;;;;1.75;0.80;;;22.40;48.40;26.70;94085.00;;;;10351968;28;75494;-62
2021/10/01 14:16:26;;;;;;;1.15;0.63;;;22.40;48.30;26.70;94087.00;;;;10352476;28;74334;-60
2021/10/01 14:21:27;;;;;;;1.88;0.60;;;22.40;48.30;26.70;94098.00;;;;10368878;28;50910;-60
2021/10/01 14:26:30;;;;;;;2.45;0.70;;;22.40;48.30;26.70;94087.00;;;;10352160;28;75489;-61
2021/10/01 14:31:32;;;;;;;1.20;0.68;;;22.40;48.20;26.70;94091.00;;;;10351958;28;46046;-61
2021/10/01 14:36:32;;;;;;;1.60;0.70;;;22.40;48.10;26.70;94089.00;;;;10368679;28;47553;-61
2021/10/01 14:41:33;;;;;;;2.15;0.60;;;22.30;48.10;26.70;94084.00;;;;10352341;28;61674;-61
2021/10/01 14:46:34;;;;;;;1.45;0.60;;;22.40;48.10;26.70;94081.00;;;;10384523;28;72743;-61
2021/10/01 14:51:34;;;;;;;0.98;0.70;;;22.40;48.40;26.70;94077.00;;;;10352387;28;74209;-61
2021/10/01 14:56:35;;;;;;;1.08;0.82;;;22.40;47.80;26.60;94073.00;;;;10333264;28;74990;-61
2021/10/01 15:01:36;;;;;;;2.75;0.60;;;22.30;47.60;26.70;94067.00;;;;10352331;28;63516;-61
2021/10/01 15:06:37;;;;;;;1.80;0.75;;;22.30;48.10;26.70;94061.00;;;;10350161;28;52168;-61
2021/10/01 15:11:37;;;;;;;2.13;0.80;;;22.40;48.10;26.70;94068.00;;;;10351870;28;53832;-61
2021/10/01 15:16:39;;;;;;;1.35;0.60;;;22.40;48.10;26.70;94058.00;;;;10383281;28;47582;-62
2021/10/01 15:21:41;;;;;;;1.25;0.70;;;22.30;48.00;26.70;94059.00;;;;10351966;28;45404;-62
2021/10/01 15:26:42;;;;;;;2.17;0.73;;;22.40;48.00;26.70;94058.00;;;;10350054;28;45457;-61
2021/10/01 15:31:43;;;;;;;1.30;0.75;;;22.40;47.90;26.70;94040.00;;;;10351439;28;55251;-61
2021/10/01 15:36:43;;;;;;;1.15;0.70;;;22.40;47.90;26.70;94052.00;;;;10348734;28;75697;-62
2021/10/01 15:41:44;;;;;;;2.42;0.77;;;22.40;47.90;26.70;94046.00;;;;10350074;28;45510;-60
2021/10/01 15:46:45;;;;;;;1.48;0.80;;;22.40;47.90;26.70;94054.00;;;;10348719;28;72776;-61
2021/10/01 15:51:45;;;;;;;1.92;0.60;;;22.40;47.90;26.70;94048.00;;;;10350497;28;75419;-61
2021/10/01 15:56:46;;;;;;;1.60;0.75;;;22.40;47.90;26.70;94050.00;;;;10349521;28;75596;-62
2021/10/01 16:01:47;;;;;;;1.02;0.63;;;22.30;47.90;26.60;94050.00;;;;10348373;28;75239;-62
2021/10/01 16:06:48;;;;;;;0.70;0.57;;;22.30;47.90;26.60;94049.00;;;;10331294;28;64687;-60
2021/10/01 16:11:48;;;;;;;1.25;0.70;;;22.30;48.00;26.60;94046.00;;;;10347722;28;74240;-60
2021/10/01 16:16:49;;;;;;;2.15;0.70;;;22.30;48.00;26.60;94032.00;;;;10343829;28;75270;-60
2021/10/01 16:21:51;;;;;;;0.80;0.60;;;22.30;48.10;26.60;94034.00;;;;10362711;28;51994;-64
2021/10/01 16:26:52;;;;;;;1.83;0.70;;;22.30;48.20;26.60;94048.00;;;;10348551;28;50154;-61
2021/10/01 16:31:53;;;;;;;1.70;0.70;;;22.30;48.30;26.60;94049.00;;;;10345863;28;75740;-61
2021/10/01 16:36:53;;;;;;;2.78;0.85;;;22.30;48.30;26.60;94053.00;;;;10336872;28;54794;-61
2021/10/01 16:41:55;;;;;;;1.00;0.80;;;22.30;48.60;26.60;94057.00;;;;10328527;28;75501;-61
2021/10/01 16:46:55;;;;;;;1.58;0.68;;;22.30;48.50;26.60;94050.00;;;;10344659;28;45244;-61
2021/10/01 16:51:56;;;;;;;1.08;0.75;;;22.30;48.40;26.60;94053.00;;;;10307320;28;74059;-61
2021/10/01 16:56:57;;;;;;;0.95;0.50;;;22.30;48.40;26.60;94043.00;;;;10331045;28;45507;-61
2021/10/01 17:01:58;;;;;;;1.08;0.75;;;22.30;48.40;26.60;94059.00;;;;10335569;28;53323;-61
2021/10/01 17:06:59;;;;;;;1.27;0.68;;;22.30;49.20;26.60;94053.00;;;;10334976;28;45310;-61
2021/10/01 17:12:00;;;;;;;1.00;0.70;;;22.30;48.50;26.60;94058.00;;;;10327180;28;73174;-61
2021/10/01 17:17:01;;;;;;;1.30;0.68;;;22.30;48.40;26.70;94053.00;;;;10342910;28;76045;-61
2021/10/01 17:22:02;;;;;;;1.92;0.70;;;22.30;48.40;26.70;94051.00;;;;10337057;28;52010;-61
2021/10/01 17:27:03;;;;;;;0.98;0.60;;;22.40;48.40;26.70;94053.00;;;;10312790;28;45297;-61
2021/10/01 17:32:05;;;;;;;1.08;0.70;;;22.40;48.40;26.70;94041.00;;;;10313395;28;45310;-61
2021/10/01 17:37:05;;;;;;;0.93;0.63;;;22.40;48.40;26.70;94050.00;;;;10328867;28;47798;-60
2021/10/01 17:42:06;;;;;;;1.00;0.70;;;22.40;48.40;26.70;94048.00;;;;10345757;28;47552;-61
2021/10/01 17:47:07;;;;;;;0.80;0.40;;;22.40;48.30;26.80;94053.00;;;;10386139;28;57038;-61
2021/10/01 17:52:08;;;;;;;0.85;0.60;;;22.40;48.30;26.80;94049.00;;;;10331515;28;54545;-63
2021/10/01 17:57:10;;;;;;;0.50;0.50;;;22.40;48.20;26.80;94053.00;;;;10324859;28;75480;-60
2021/10/01 18:02:11;;;;;;;1.27;0.60;;;22.50;48.30;26.80;94049.00;;;;10355998;28;67839;-60
2021/10/01 18:07:12;;;;;;;1.10;0.60;;;22.50;48.30;26.80;94046.00;;;;10332016;28;45880;-60
2021/10/01 18:12:13;;;;;;;0.65;0.40;;;22.50;48.30;26.80;94035.00;;;;10336472;28;75378;-60
2021/10/01 18:17:13;;;;;;;0.93;0.55;;;22.50;48.30;26.80;94028.00;;;;10312757;28;45596;-60
2021/10/01 18:22:15;;;;;;;2.42;0.68;;;22.50;48.20;26.80;94031.00;;;;10312527;28;52900;-64
2021/10/01 18:27:15;;;;;;;1.00;0.60;;;22.50;48.20;26.90;94043.00;;;;10313917;28;46175;-60
2021/10/01 18:32:16;;;;;;;0.50;0.45;;;22.50;48.20;26.90;94049.00;;;;10313604;28;45631;-60
2021/10/01 18:37:17;;;;;;;0.68;0.40;;;22.50;48.10;26.90;94055.00;;;;10311550;28;75116;-63
2021/10/01 18:42:18;;;;;;;0.50;0.40;;;22.60;48.20;26.90;94036.00;;;;10312690;28;45476;-60
2021/10/01 18:47:18;;;;;;;0.75;0.55;;;22.60;48.10;26.90;94034.00;;;;10311851;28;45641;-59
2021/10/01 18:52:19;;;;;;;0.85;0.50;;;22.60;48.10;26.90;94050.00;;;;10310815;28;75616;-62
2021/10/01 18:57:20;;;;;;;1.63;0.50;;;22.60;48.10;26.90;94052.00;;;;10310683;28;53899;-60
2021/10/01 19:02:21;;;;;;;1.27;0.70;;;22.60;48.10;26.90;94047.00;;;;10311863;28;75234;-62
2021/10/01 19:07:21;;;;;;;0.55;0.50;;;22.60;48.00;27.00;94048.00;;;;10311358;28;75580;-62
2021/10/01 19:12:22;;;;;;;0.60;0.40;;;22.60;48.00;27.00;94053.00;;;;10310486;28;69105;-61
2021/10/01 19:17:23;;;;;;;0.85;0.60;;;22.60;48.00;27.00;94053.00;;;;10310732;28;75223;-61
2021/10/01 19:22:28;;;;;;;0.80;0.50;;;22.60;48.00;27.00;94058.00;;;;10311176;28;46087;-59
2021/10/01 19:33:08;;;;;;;0.63;0.43;;;22.70;48.10;27.00;94045.00;;;;10214167;28;45943;-61
2021/10/01 19:38:09;;;;;;;0.70;0.60;;;22.70;48.00;27.00;94046.00;;;;10281398;28;45873;-61
2021/10/01 19:43:10;;;;;;;1.27;0.50;;;22.70;48.00;27.00;94039.00;;;;10310399;28;47195;-63
2021/10/01 19:48:11;;;;;;;0.70;0.50;;;22.70;48.00;27.00;94048.00;;;;10309002;28;58744;-62
2021/10/01 19:53:12;;;;;;;1.13;0.50;;;22.70;48.00;27.00;94043.00;;;;10325152;28;72554;-60
2021/10/01 19:58:14;;;;;;;0.93;0.50;;;22.70;47.90;27.10;94052.00;;;;10310430;28;45419;-63
2021/10/01 20:03:15;;;;;;;0.95;0.50;;;22.70;47.90;27.10;94050.00;;;;10311172;28;45279;-60
2021/10/01 20:08:16;;;;;;;0.88;0.50;;;22.70;47.90;27.10;94050.00;;;;10309445;28;75456;-62
2021/10/01 20:13:17;;;;;;;1.27;0.60;;;22.70;47.90;27.10;94044.00;;;;10332756;28;75610;-62
2021/10/01 20:18:35;;;;;;;0.70;0.43;;;22.70;47.90;27.10;94042.00;;;;10349583;28;45386;-60
2021/10/01 20:50:08;;;;;;;0.73;0.40;;;22.70;47.80;27.00;94051.00;;;;10309664;28;45502;-59
2021/10/01 20:55:09;;;;;;;1.05;0.50;;;22.70;47.80;26.90;94053.00;;;;10315175;28;45376;-61
2021/10/01 21:01:01;;;;;;;0.57;0.40;;;22.60;47.80;26.90;94040.00;;;;10314435;28;46295;-60
2021/10/01 21:48:30;;;;;;;0.38;0.32;;;22.40;48.00;26.70;94025.00;;;;10313024;28;45368;-61
2021/10/01 21:53:31;;;;;;;0.63;0.50;;;22.40;48.00;26.70;94020.00;;;;10313021;28;45706;-60
2021/10/01 21:58:34;;;;;;;0.40;0.30;;;22.40;48.70;26.70;94019.00;;;;10312406;28;46689;-61
2021/10/01 22:09:06;;;;;;;0.63;0.50;;;22.30;48.00;26.70;94021.00;;;;10313185;28;45258;-61
2021/10/01 22:14:32;;;;;;;0.43;0.43;;;22.30;48.10;26.60;94006.00;;;;10312625;28;45535;-61
2021/10/01 22:24:56;;;;;;;0.73;0.40;;;22.30;48.10;26.60;94014.00;;;;10312336;28;45227;-61
2021/10/01 22:29:57;;;;;;;0.63;0.38;;;22.30;48.10;26.60;94022.00;;;;10311548;28;74409;-61
2021/10/01 22:35:01;;;;;;;0.60;0.40;;;22.20;48.10;26.60;94008.00;;;;10312751;28;46169;-61
2021/10/01 22:40:09;;;;;;;0.63;0.40;;;22.20;48.10;26.60;94012.00;;;;10311135;28;46420;-60
2021/10/01 22:45:11;;;;;;;0.35;0.35;;;22.20;48.10;26.60;94016.00;;;;10311278;28;45424;-61
2021/10/01 22:50:12;;;;;;;0.63;0.40;;;22.20;48.20;26.50;94014.00;;;;10310187;28;45624;-61
2021/10/01 22:55:15;;;;;;;0.50;0.40;;;22.20;48.20;26.50;94026.00;;;;10310434;28;45298;-60
2021/10/01 23:00:21;;;;;;;0.30;0.30;;;22.20;48.20;26.50;94007.00;;;;10310660;28;45438;-62
2021/10/01 23:05:28;;;;;;;0.52;0.38;;;22.20;48.20;26.50;94001.00;;;;10311032;28;45296;-60
2021/10/01 23:11:34;;;;;;;0.40;0.40;;;22.20;48.20;26.50;94001.00;;;;10312284;28;45458;-61
